createdAt,value
2022-09-05T00:00:03.744Z,95582.22
2022-09-05T00:03:03.821Z,95576.69
2022-09-05T00:06:02.460Z,95579.44
2022-09-05T00:08:53.759Z,95573.59
2022-09-05T00:11:42.586Z,95581.53
2022-09-05T00:15:15.821Z,95572.41
2022-09-05T00:19:25.691Z,95573.97
2022-09-05T00:24:24.923Z,95570.50
2022-09-05T00:24:31.895Z,95568.88
2022-09-05T00:26:47.210Z,95567.81
2022-09-05T00:29:20.375Z,95564.88
2022-09-05T00:32:09.274Z,95563.91
2022-09-05T00:34:47.845Z,95561.84
2022-09-05T00:37:29.406Z,95558.13
2022-09-05T00:40:18.000Z,95561.25
2022-09-05T00:42:49.346Z,95557.97
2022-09-05T00:45:55.063Z,95556.53
2022-09-05T00:48:21.656Z,95563.47
2022-09-05T00:51:02.473Z,95561.84
2022-09-05T00:53:36.759Z,95562.78
2022-09-05T00:56:21.831Z,95572.78
2022-09-05T00:58:57.776Z,95573.06
2022-09-05T01:01:47.836Z,95575.81
2022-09-05T01:04:29.476Z,95574.97
2022-09-05T01:07:25.223Z,95565.97
2022-09-05T01:10:19.518Z,95573.16
2022-09-05T01:13:05.970Z,95569.75
2022-09-05T01:15:44.783Z,95574.13
2022-09-05T01:18:38.904Z,95573.00
2022-09-05T01:21:11.486Z,95574.16
2022-09-05T01:23:50.196Z,95567.94
2022-09-05T01:27:01.696Z,95575.03
2022-09-05T01:29:37.020Z,95576.94
2022-09-05T01:32:30.203Z,95568.09
2022-09-05T01:35:28.097Z,95574.22
2022-09-05T01:38:10.156Z,95569.47
2022-09-05T01:41:18.048Z,95564.47
2022-09-05T01:44:06.879Z,95569.06
2022-09-05T01:46:38.925Z,95571.94
2022-09-05T01:49:27.224Z,95570.59
2022-09-05T01:52:24.599Z,95570.66
2022-09-05T01:55:06.395Z,95569.69
2022-09-05T01:57:45.106Z,95583.28
2022-09-05T02:00:24.760Z,95568.59
2022-09-05T02:02:51.391Z,95569.53
2022-09-05T02:05:48.941Z,95574.69
2022-09-05T02:08:16.269Z,95569.25
2022-09-05T02:10:46.307Z,95572.66
2022-09-05T02:13:20.804Z,95572.13
2022-09-05T02:16:01.951Z,95578.97
2022-09-05T02:18:44.271Z,95572.75
2022-09-05T02:21:33.397Z,95569.19
2022-09-05T02:24:15.029Z,95574.75
2022-09-05T02:26:56.465Z,95573.66
2022-09-05T02:30:01.869Z,95576.59
2022-09-05T02:32:39.226Z,95579.50
2022-09-05T02:35:09.701Z,95577.78
2022-09-05T02:41:37.008Z,95572.13
2022-09-05T02:45:14.493Z,95580.69
2022-09-05T02:45:19.431Z,95573.09
2022-09-05T02:46:51.115Z,95571.19
2022-09-05T02:52:21.223Z,95573.50
2022-09-05T02:57:25.225Z,95574.81
2022-09-05T02:57:46.894Z,95570.75
2022-09-05T02:59:09.233Z,95578.44
2022-09-05T03:01:58.749Z,95574.78
2022-09-05T03:04:35.164Z,95577.91
2022-09-05T03:07:30.100Z,95576.53
2022-09-05T03:10:43.689Z,95583.88
2022-09-05T03:13:37.475Z,95587.25
2022-09-05T03:16:46.907Z,95581.41
2022-09-05T03:19:46.349Z,95578.16
2022-09-05T03:22:25.792Z,95583.31
2022-09-05T03:25:10.672Z,95575.03
2022-09-05T03:28:03.898Z,95571.63
2022-09-05T03:30:47.488Z,95572.16
2022-09-05T03:33:26.289Z,95576.75
2022-09-05T03:36:16.668Z,95576.97
2022-09-05T03:39:10.235Z,95575.44
2022-09-05T03:41:58.383Z,95575.56
2022-09-05T03:44:40.524Z,95571.44
2022-09-05T03:47:34.746Z,95576.19
2022-09-05T03:54:47.330Z,95572.88
2022-09-05T03:57:14.439Z,95563.59
2022-09-05T03:57:23.701Z,95567.41
2022-09-05T04:00:08.034Z,95564.25
2022-09-05T04:08:13.381Z,95567.50
2022-09-05T04:08:27.803Z,95563.47
2022-09-05T04:09:13.684Z,95558.50
2022-09-05T04:12:06.016Z,95560.59
2022-09-05T04:14:51.426Z,95556.00
2022-09-05T04:17:48.084Z,95553.72
2022-09-05T04:20:17.616Z,95550.75
2022-09-05T04:23:06.006Z,95561.38
2022-09-05T04:26:11.020Z,95570.34
2022-09-05T04:28:53.855Z,95570.47
2022-09-05T04:31:26.471Z,95564.88
2022-09-05T04:34:17.578Z,95565.94
2022-09-05T04:36:46.756Z,95574.94
2022-09-05T04:39:19.225Z,95565.84
2022-09-05T04:42:01.420Z,95574.66
2022-09-05T04:44:30.971Z,95587.88
2022-09-05T04:47:03.874Z,95583.25
2022-09-05T04:49:40.954Z,95582.13
2022-09-05T04:52:31.088Z,95586.06
2022-09-05T04:55:13.741Z,95585.66
2022-09-05T04:58:10.264Z,95588.50
2022-09-05T05:06:04.497Z,95593.00
2022-09-05T05:06:19.104Z,95587.91
2022-09-05T05:06:45.683Z,95598.25
2022-09-05T05:09:43.226Z,95602.34
2022-09-05T05:18:00.299Z,95606.56
2022-09-05T05:18:11.660Z,95609.69
2022-09-05T05:18:42.240Z,95612.25
2022-09-05T05:21:13.413Z,95614.66
2022-09-05T05:23:44.752Z,95609.16
2022-09-05T05:26:21.226Z,95613.22
2022-09-05T05:29:40.287Z,95615.91
2022-09-05T05:32:07.789Z,95616.44
2022-09-05T05:34:43.613Z,95612.78
2022-09-05T05:37:29.695Z,95623.16
2022-09-05T05:40:10.414Z,95625.91
2022-09-05T05:42:40.178Z,95622.81
2022-09-05T05:45:27.527Z,95622.16
2022-09-05T05:48:01.583Z,95624.59
2022-09-05T05:50:53.022Z,95629.44
2022-09-05T05:53:43.064Z,95634.41
2022-09-05T05:56:16.856Z,95632.59
2022-09-05T05:58:56.170Z,95632.38
2022-09-05T06:01:54.738Z,95631.19
2022-09-05T06:04:53.312Z,95627.69
2022-09-05T06:09:05.641Z,95634.03
2022-09-05T06:14:52.810Z,95629.69
2022-09-05T06:14:58.709Z,95635.53
2022-09-05T06:16:55.496Z,95635.72
2022-09-05T06:20:55.332Z,95630.34
2022-09-05T06:22:51.097Z,95627.75
2022-09-05T06:25:36.134Z,95631.66
2022-09-05T06:28:19.116Z,95634.91
2022-09-05T06:30:59.274Z,95628.38
2022-09-05T06:34:33.281Z,95629.66
2022-09-05T06:37:36.428Z,95631.75
2022-09-05T06:40:12.078Z,95629.50
2022-09-05T06:43:00.454Z,95634.66
2022-09-05T06:45:30.105Z,95641.78
2022-09-05T06:48:13.678Z,95642.34
2022-09-05T06:51:44.729Z,95638.16
2022-09-05T06:54:59.576Z,95639.78
2022-09-05T06:57:54.690Z,95637.97
2022-09-05T07:00:25.942Z,95646.06
2022-09-05T07:03:04.701Z,95641.03
2022-09-05T07:05:55.758Z,95640.81
2022-09-05T07:09:00.333Z,95642.06
2022-09-05T07:11:40.984Z,95650.88
2022-09-05T07:14:18.227Z,95649.63
2022-09-05T07:16:51.830Z,95655.56
2022-09-05T07:19:28.089Z,95653.84
2022-09-05T07:22:47.723Z,95657.63
2022-09-05T07:25:18.265Z,95657.78
2022-09-05T07:28:28.861Z,95658.25
2022-09-05T07:31:26.502Z,95666.16
2022-09-05T07:34:21.188Z,95670.28
2022-09-05T07:37:13.909Z,95658.97
2022-09-05T07:40:24.705Z,95667.97
2022-09-05T07:42:57.332Z,95665.94
2022-09-05T07:45:55.316Z,95670.22
2022-09-05T07:48:34.538Z,95663.38
2022-09-05T07:56:46.380Z,95666.53
2022-09-05T07:57:07.927Z,95666.31
2022-09-05T07:59:41.328Z,95662.13
2022-09-05T08:02:12.123Z,95662.84
2022-09-05T08:04:41.727Z,95661.19
2022-09-05T08:07:49.542Z,95664.09
2022-09-05T08:10:11.668Z,95662.00
2022-09-05T08:13:23.773Z,95659.06
2022-09-05T08:16:09.822Z,95666.03
2022-09-05T08:19:08.084Z,95653.63
2022-09-05T08:21:52.137Z,95653.88
2022-09-05T08:24:37.991Z,95651.78
2022-09-05T08:27:16.739Z,95646.75
2022-09-05T08:29:46.076Z,95651.63
2022-09-05T08:32:45.181Z,95640.59
2022-09-05T08:35:38.401Z,95646.44
2022-09-05T08:38:06.421Z,95642.97
2022-09-05T08:40:39.237Z,95640.59
2022-09-05T08:46:36.430Z,95639.19
2022-09-05T08:46:41.383Z,95633.28
2022-09-05T08:50:08.119Z,95639.78
2022-09-05T08:52:45.939Z,95634.50
2022-09-05T08:55:49.640Z,95635.72
2022-09-05T08:58:35.679Z,95626.91
2022-09-05T09:01:14.375Z,95627.38
2022-09-05T09:04:06.180Z,95627.00
2022-09-05T09:06:57.971Z,95623.69
2022-09-05T09:09:52.993Z,95620.47
2022-09-05T09:12:44.639Z,95619.66
2022-09-05T09:15:13.909Z,95617.09
2022-09-05T09:17:50.175Z,95614.50
2022-09-05T09:20:28.992Z,95614.59
2022-09-05T09:23:32.688Z,95613.13
2022-09-05T09:26:20.065Z,95612.78
2022-09-05T09:29:10.310Z,95610.56
2022-09-05T09:31:51.505Z,95609.78
2022-09-05T09:34:28.836Z,95609.78
2022-09-05T09:37:20.158Z,95605.13
2022-09-05T09:40:26.580Z,95612.56
2022-09-05T09:43:09.230Z,95612.88
2022-09-05T09:45:59.826Z,95606.84
2022-09-05T09:49:00.214Z,95605.81
2022-09-05T09:51:26.950Z,95604.06
2022-09-05T09:54:12.139Z,95603.06
2022-09-05T09:56:48.097Z,95605.19
2022-09-05T09:59:35.346Z,95609.28
2022-09-05T10:02:57.469Z,95609.47
2022-09-05T10:10:52.608Z,95604.09
2022-09-05T10:11:09.179Z,95598.47
2022-09-05T10:11:49.990Z,95596.97
2022-09-05T10:14:51.075Z,95602.25
2022-09-05T10:17:37.988Z,95599.94
2022-09-05T10:20:14.775Z,95591.91
2022-09-05T10:23:02.790Z,95590.38
2022-09-05T10:25:32.501Z,95595.66
2022-09-05T10:28:14.351Z,95588.53
2022-09-05T10:33:38.264Z,95590.41
2022-09-05T10:35:12.790Z,95585.34
2022-09-05T10:37:12.206Z,95587.94
2022-09-05T10:39:50.091Z,95584.91
2022-09-05T10:43:00.718Z,95580.44
2022-09-05T10:45:42.951Z,95574.09
2022-09-05T10:48:21.047Z,95574.53
2022-09-05T10:50:59.664Z,95576.44
2022-09-05T10:53:41.029Z,95568.41
2022-09-05T10:56:21.506Z,95571.31
2022-09-05T11:02:20.099Z,95572.59
2022-09-05T11:02:33.582Z,95570.06
2022-09-05T11:05:21.990Z,95569.25
2022-09-05T11:08:07.621Z,95561.41
2022-09-05T11:10:55.948Z,95561.13
2022-09-05T11:13:51.246Z,95564.56
2022-09-05T11:16:59.018Z,95558.91
2022-09-05T11:19:59.931Z,95558.13
2022-09-05T11:22:34.790Z,95562.94
2022-09-05T11:25:05.122Z,95558.91
2022-09-05T11:27:34.721Z,95556.25
2022-09-05T11:30:30.469Z,95555.41
2022-09-05T11:39:49.150Z,95549.50
2022-09-05T11:40:04.610Z,95538.16
2022-09-05T11:40:05.890Z,95548.41
2022-09-05T11:42:32.057Z,95541.16
2022-09-05T11:45:13.999Z,95536.63
2022-09-05T11:47:58.755Z,95535.13
2022-09-05T11:50:37.928Z,95535.66
2022-09-05T11:53:25.892Z,95537.75
2022-09-05T11:56:28.869Z,95524.41
2022-09-05T11:58:58.608Z,95532.06
2022-09-05T12:01:44.852Z,95523.63
2022-09-05T12:04:16.955Z,95532.28
2022-09-05T12:07:29.907Z,95525.63
2022-09-05T12:10:47.279Z,95529.31
2022-09-05T12:13:17.088Z,95528.09
2022-09-05T12:16:07.698Z,95524.22
2022-09-05T12:18:50.377Z,95519.47
2022-09-05T12:22:08.872Z,95523.97
2022-09-05T12:27:39.109Z,95519.13
2022-09-05T12:29:27.775Z,95518.44
2022-09-05T12:32:36.503Z,95520.72
2022-09-05T12:36:10.518Z,95521.50
2022-09-05T12:40:15.837Z,95516.38
2022-09-05T12:41:34.234Z,95522.13
2022-09-05T12:44:40.014Z,95523.88
2022-09-05T12:46:33.282Z,95525.47
2022-09-05T12:49:10.407Z,95524.38
2022-09-05T12:51:47.688Z,95519.00
2022-09-05T12:54:33.230Z,95522.28
2022-09-05T13:01:20.382Z,95515.13
2022-09-05T13:03:02.133Z,95509.72
2022-09-05T13:03:06.941Z,95509.16
2022-09-05T13:06:25.568Z,95506.50
2022-09-05T13:09:00.724Z,95508.31
2022-09-05T13:14:50.393Z,95503.91
2022-09-05T13:14:52.853Z,95499.03
2022-09-05T13:17:14.297Z,95492.53
2022-09-05T13:19:51.381Z,95494.94
2022-09-05T13:22:22.163Z,95501.25
2022-09-05T13:25:09.951Z,95495.81
2022-09-05T13:27:42.676Z,95490.94
2022-09-05T13:34:23.312Z,95492.53
2022-09-05T13:37:59.371Z,95487.66
2022-09-05T13:38:05.481Z,95478.25
2022-09-05T13:38:52.778Z,95473.06
2022-09-05T13:41:30.846Z,95469.47
2022-09-05T13:44:27.030Z,95468.72
2022-09-05T13:47:14.759Z,95473.13
2022-09-05T13:49:55.861Z,95470.09
2022-09-05T13:52:31.270Z,95463.41
2022-09-05T13:55:20.495Z,95470.63
2022-09-05T13:57:50.199Z,95455.44
2022-09-05T14:00:26.933Z,95458.38
2022-09-05T14:03:38.606Z,95452.19
2022-09-05T14:06:46.671Z,95452.97
2022-09-05T14:09:39.911Z,95442.31
2022-09-05T14:12:29.687Z,95441.25
2022-09-05T14:15:09.673Z,95440.84
2022-09-05T14:18:20.583Z,95440.19
2022-09-05T14:21:16.188Z,95446.13
2022-09-05T14:23:54.012Z,95435.94
2022-09-05T14:26:31.534Z,95441.19
2022-09-05T14:29:02.340Z,95434.59
2022-09-05T14:37:34.497Z,95435.09
2022-09-05T14:37:49.993Z,95439.84
2022-09-05T14:38:14.236Z,95436.69
2022-09-05T14:41:07.578Z,95439.06
2022-09-05T14:44:10.706Z,95434.03
2022-09-05T14:46:41.481Z,95442.84
2022-09-05T14:49:18.126Z,95440.50
2022-09-05T14:51:48.097Z,95431.19
2022-09-05T15:02:39.477Z,95432.94
2022-09-05T15:02:42.985Z,95434.53
2022-09-05T15:03:10.662Z,95427.69
2022-09-05T15:05:50.110Z,95425.41
2022-09-05T15:11:18.234Z,95421.69
2022-09-05T15:12:24.271Z,95422.38
2022-09-05T15:14:08.765Z,95421.38
2022-09-05T15:16:40.354Z,95421.31
2022-09-05T15:19:10.337Z,95410.44
2022-09-05T15:21:41.938Z,95410.00
2022-09-05T15:24:21.362Z,95407.13
2022-09-05T15:27:00.509Z,95408.69
2022-09-05T15:29:30.567Z,95402.03
2022-09-05T15:32:27.411Z,95402.47
2022-09-05T15:34:56.921Z,95398.97
2022-09-05T15:37:30.011Z,95394.16
2022-09-05T15:40:07.608Z,95395.63
2022-09-05T15:42:57.537Z,95391.31
2022-09-05T15:45:47.071Z,95393.47
2022-09-05T15:48:15.487Z,95390.28
2022-09-05T15:50:52.595Z,95392.19
2022-09-05T15:53:29.403Z,95390.88
2022-09-05T15:56:12.154Z,95404.94
2022-09-05T15:58:53.883Z,95401.03
2022-09-05T16:01:59.279Z,95400.16
2022-09-05T16:08:58.112Z,95402.81
2022-09-05T16:10:34.564Z,95399.03
2022-09-05T16:10:49.258Z,95392.53
2022-09-05T16:12:59.190Z,95399.22
2022-09-05T16:22:36.225Z,95396.63
2022-09-05T16:23:29.523Z,95396.47
2022-09-05T16:23:30.680Z,95401.25
2022-09-05T16:24:41.497Z,95393.03
2022-09-05T16:27:37.111Z,95395.00
2022-09-05T16:30:15.479Z,95398.13
2022-09-05T16:32:51.349Z,95400.09
2022-09-05T16:35:24.915Z,95394.16
2022-09-05T16:38:05.988Z,95395.06
2022-09-05T16:40:41.898Z,95385.59
2022-09-05T16:43:20.600Z,95383.78
2022-09-05T16:46:04.526Z,95383.16
2022-09-05T16:48:34.325Z,95383.25
2022-09-05T16:51:34.721Z,95386.34
2022-09-05T16:54:12.900Z,95384.53
2022-09-05T16:56:45.370Z,95383.53
2022-09-05T16:59:17.894Z,95384.84
2022-09-05T17:02:06.255Z,95372.47
2022-09-05T17:04:42.941Z,95372.84
2022-09-05T17:07:42.085Z,95371.91
2022-09-05T17:10:21.043Z,95373.44
2022-09-05T17:12:52.654Z,95372.34
2022-09-05T17:15:31.197Z,95369.66
2022-09-05T17:18:24.307Z,95374.28
2022-09-05T17:20:59.286Z,95374.00
2022-09-05T17:27:38.300Z,95375.28
2022-09-05T17:29:31.059Z,95382.25
2022-09-05T17:32:46.346Z,95377.09
2022-09-05T17:35:31.359Z,95371.69
2022-09-05T17:38:12.060Z,95374.09
2022-09-05T17:40:59.541Z,95379.66
2022-09-05T17:43:33.474Z,95380.06
2022-09-05T17:46:23.531Z,95380.88
2022-09-05T17:48:58.610Z,95380.50
2022-09-05T17:51:42.062Z,95377.94
2022-09-05T17:54:29.529Z,95373.09
2022-09-05T17:56:56.552Z,95376.72
2022-09-05T17:59:27.147Z,95379.97
2022-09-05T18:02:03.104Z,95378.53
2022-09-05T18:04:51.541Z,95381.53
2022-09-05T18:07:27.196Z,95380.09
2022-09-05T18:10:15.560Z,95384.28
2022-09-05T18:13:13.347Z,95382.47
2022-09-05T18:15:40.714Z,95390.09
2022-09-05T18:19:28.052Z,95384.69
2022-09-05T18:21:23.147Z,95387.28
2022-09-05T18:24:07.921Z,95387.22
2022-09-05T18:26:44.581Z,95386.94
2022-09-05T18:29:57.913Z,95388.53
2022-09-05T18:32:45.322Z,95391.56
2022-09-05T18:35:32.177Z,95393.16
2022-09-05T18:38:05.312Z,95392.34
2022-09-05T18:40:57.209Z,95389.09
2022-09-05T18:43:31.204Z,95388.63
2022-09-05T18:46:26.679Z,95390.38
2022-09-05T18:50:08.195Z,95394.91
2022-09-05T18:52:09.030Z,95396.06
2022-09-05T18:54:44.368Z,95399.84
2022-09-05T18:57:28.900Z,95399.53
2022-09-05T19:00:03.149Z,95395.38
2022-09-05T19:02:50.326Z,95404.56
2022-09-05T19:05:40.671Z,95399.25
2022-09-05T19:08:26.825Z,95397.34
2022-09-05T19:10:59.135Z,95396.41
2022-09-05T19:13:46.586Z,95395.34
2022-09-05T19:16:42.444Z,95408.03
2022-09-05T19:19:16.028Z,95403.28
2022-09-05T19:22:33.133Z,95405.50
2022-09-05T19:24:44.790Z,95402.88
2022-09-05T19:28:48.590Z,95406.03
2022-09-05T19:36:52.841Z,95406.44
2022-09-05T19:37:06.833Z,95400.34
2022-09-05T19:37:08.356Z,95406.78
2022-09-05T19:38:25.485Z,95409.72
2022-09-05T19:47:25.754Z,95405.72
2022-09-05T19:47:38.919Z,95402.44
2022-09-05T19:47:43.863Z,95405.38
2022-09-05T19:49:40.719Z,95402.28
2022-09-05T19:52:17.340Z,95396.22
2022-09-05T19:54:50.634Z,95398.53
2022-09-05T19:57:19.891Z,95390.31
2022-09-05T19:59:53.558Z,95381.44
2022-09-05T20:02:30.211Z,95383.00
2022-09-05T20:04:59.733Z,95387.88
2022-09-05T20:07:29.025Z,95382.34
2022-09-05T20:09:58.399Z,95378.13
2022-09-05T20:12:33.669Z,95384.28
2022-09-05T20:15:18.774Z,95386.97
2022-09-05T20:17:46.075Z,95387.00
2022-09-05T20:20:24.676Z,95383.78
2022-09-05T20:22:59.335Z,95388.94
2022-09-05T20:25:48.058Z,95381.03
2022-09-05T20:28:18.584Z,95383.22
2022-09-05T20:30:49.446Z,95382.50
2022-09-05T20:33:16.114Z,95372.00
2022-09-05T20:43:07.989Z,95377.78
2022-09-05T20:43:25.329Z,95372.66
2022-09-05T20:43:30.599Z,95381.75
2022-09-05T20:44:24.995Z,95376.38
2022-09-05T20:54:09.498Z,95379.06
2022-09-05T20:54:14.764Z,95376.16
2022-09-05T20:54:20.543Z,95380.16
2022-09-05T20:55:41.410Z,95376.03
2022-09-05T20:58:13.845Z,95369.22
2022-09-05T21:01:21.353Z,95369.84
2022-09-05T21:03:41.589Z,95370.88
2022-09-05T21:06:22.057Z,95373.91
2022-09-05T21:08:50.756Z,95377.97
2022-09-05T21:11:17.793Z,95382.28
2022-09-05T21:13:52.399Z,95374.34
2022-09-05T21:16:29.119Z,95376.31
2022-09-05T21:18:55.995Z,95371.97
2022-09-05T21:21:34.801Z,95369.09
2022-09-05T21:24:16.019Z,95365.84
2022-09-05T21:26:43.866Z,95371.38
2022-09-05T21:29:13.199Z,95375.16
2022-09-05T21:32:10.679Z,95368.31
2022-09-05T21:34:45.711Z,95367.44
2022-09-05T21:37:14.998Z,95363.97
2022-09-05T21:39:55.316Z,95375.47
2022-09-05T21:44:37.870Z,95367.03
2022-09-05T21:47:47.015Z,95363.44
2022-09-05T21:48:14.590Z,95372.25
2022-09-05T21:50:45.661Z,95372.66
2022-09-05T21:57:01.765Z,95367.00
2022-09-05T21:59:18.105Z,95361.63
2022-09-05T21:59:41.535Z,95363.47
2022-09-05T22:02:16.521Z,95359.13
2022-09-05T22:04:43.529Z,95362.78
2022-09-05T22:07:21.661Z,95364.28
2022-09-05T22:10:00.475Z,95360.06
2022-09-05T22:12:33.445Z,95367.06
2022-09-05T22:15:10.139Z,95362.38
2022-09-05T22:17:49.090Z,95362.19
2022-09-05T22:20:20.268Z,95366.59
2022-09-05T22:22:56.835Z,95364.34
2022-09-05T22:25:29.404Z,95365.31
2022-09-05T22:28:06.398Z,95361.09
2022-09-05T22:30:35.477Z,95363.50
2022-09-05T22:33:05.317Z,95361.25
2022-09-05T22:35:37.175Z,95356.53
2022-09-05T22:38:10.952Z,95358.00
2022-09-05T22:40:40.679Z,95357.66
2022-09-05T22:43:09.722Z,95360.53
2022-09-05T22:45:37.936Z,95359.53
2022-09-05T22:48:11.051Z,95351.66
2022-09-05T22:50:38.467Z,95349.56
2022-09-05T22:53:07.335Z,95349.38
2022-09-05T22:55:39.371Z,95352.38
2022-09-05T22:58:07.790Z,95354.09
2022-09-05T23:00:34.672Z,95353.78
2022-09-05T23:03:03.519Z,95346.38
2022-09-05T23:05:31.582Z,95342.19
2022-09-05T23:07:59.565Z,95349.03
2022-09-05T23:10:27.579Z,95346.66
2022-09-05T23:12:54.243Z,95337.41
2022-09-05T23:15:21.014Z,95345.06
2022-09-05T23:17:55.630Z,95346.16
2022-09-05T23:20:23.359Z,95349.91
2022-09-05T23:22:50.061Z,95339.34
2022-09-05T23:25:17.417Z,95333.19
2022-09-05T23:27:44.305Z,95335.78
2022-09-05T23:30:11.667Z,95331.72
2022-09-05T23:32:46.972Z,95341.63
2022-09-05T23:35:14.737Z,95337.47
2022-09-05T23:37:43.906Z,95333.25
2022-09-05T23:40:14.670Z,95332.47
2022-09-05T23:42:41.591Z,95334.41
2022-09-05T23:45:09.091Z,95334.72
2022-09-05T23:47:36.476Z,95331.47
2022-09-05T23:50:04.153Z,95326.75
2022-09-05T23:52:31.013Z,95318.31
2022-09-05T23:54:57.716Z,95326.28
2022-09-05T23:57:24.347Z,95329.38
2022-09-05T23:59:52.508Z,95331.81
